createdAt,value
2018-01-26T00:03:00.738Z,95486
2018-01-26T00:08:28.935Z,95490
2018-01-26T00:13:57.143Z,95492
2018-01-26T00:19:25.334Z,95493
2018-01-26T00:24:54.273Z,95494
2018-01-26T00:30:22.472Z,95491
2018-01-26T00:35:50.641Z,95491
2018-01-26T00:41:18.817Z,95492
2018-01-26T00:46:47.016Z,95494
2018-01-26T00:52:15.982Z,95487
2018-01-26T00:57:44.154Z,95495
2018-01-26T01:03:12.338Z,95490
2018-01-26T01:08:40.534Z,95490
2018-01-26T01:14:08.745Z,95490
2018-01-26T01:19:37.722Z,95481
2018-01-26T01:25:05.959Z,95470
2018-01-26T01:30:34.176Z,95468
2018-01-26T01:36:02.622Z,95461
2018-01-26T01:41:31.092Z,95451
2018-01-26T01:47:00.252Z,95449
2018-01-26T01:52:28.439Z,95450
2018-01-26T01:57:57.382Z,95427
2018-01-26T02:03:26.358Z,95434
2018-01-26T02:08:54.596Z,95428
2018-01-26T02:14:22.852Z,95423
2018-01-26T02:19:51.049Z,95418
2018-01-26T02:25:19.241Z,95410
2018-01-26T02:30:47.418Z,95397
2018-01-26T02:36:15.624Z,95399
2018-01-26T02:41:44.576Z,95401
2018-01-26T02:47:13.525Z,95405
2018-01-26T02:52:41.716Z,95419
2018-01-26T02:58:09.919Z,95409
2018-01-26T03:03:38.098Z,95416
2018-01-26T03:09:06.320Z,95396
2018-01-26T03:14:35.925Z,95395
2018-01-26T03:20:07.728Z,95398
2018-01-26T03:25:35.928Z,95392
2018-01-26T03:31:04.136Z,95397
2018-01-26T03:36:32.308Z,95390
2018-01-26T03:42:00.482Z,95393
2018-01-26T03:47:28.919Z,95388
2018-01-26T03:52:57.105Z,95395
2018-01-26T03:58:25.282Z,95399
2018-01-26T04:03:55.418Z,95392
2018-01-26T04:09:23.613Z,95381
2018-01-26T04:14:54.944Z,95383
2018-01-26T04:20:23.153Z,95375
2018-01-26T04:25:51.373Z,95373
2018-01-26T04:31:20.341Z,95358
2018-01-26T04:36:48.534Z,95362
2018-01-26T04:42:16.715Z,95370
2018-01-26T04:47:45.657Z,95373
2018-01-26T04:53:14.609Z,95372
2018-01-26T04:58:42.819Z,95367
2018-01-26T05:04:22.513Z,95354
2018-01-26T05:09:51.482Z,95357
2018-01-26T05:15:20.639Z,95355
2018-01-26T05:20:48.832Z,95369
2018-01-26T05:26:36.711Z,95364
2018-01-26T05:32:06.898Z,95385
2018-01-26T05:37:35.107Z,95398
2018-01-26T05:43:03.355Z,95399
2018-01-26T05:48:31.560Z,95415
2018-01-26T05:54:00.087Z,95411
2018-01-26T05:59:34.252Z,95418
2018-01-26T06:05:02.448Z,95425
2018-01-26T06:10:31.391Z,95429
2018-01-26T06:16:00.334Z,95426
2018-01-26T06:21:28.562Z,95432
2018-01-26T06:26:57.549Z,95433
2018-01-26T06:32:25.738Z,95423
2018-01-26T06:37:53.928Z,95425
2018-01-26T06:43:22.889Z,95411
2018-01-26T06:48:58.892Z,95411
2018-01-26T06:54:27.959Z,95404
2018-01-26T06:59:56.141Z,95398
2018-01-26T07:05:25.115Z,95408
2018-01-26T07:10:53.317Z,95399
2018-01-26T07:16:21.494Z,95390
2018-01-26T07:21:49.682Z,95401
2018-01-26T07:27:17.862Z,95402
2018-01-26T07:32:46.802Z,95409
2018-01-26T07:38:15.745Z,95421
2018-01-26T07:43:43.937Z,95426
2018-01-26T07:49:12.140Z,95423
2018-01-26T07:54:40.413Z,95425
2018-01-26T08:00:08.633Z,95422
2018-01-26T08:05:36.832Z,95433
2018-01-26T08:11:05.101Z,95427
2018-01-26T08:16:33.324Z,95428
2018-01-26T08:22:01.500Z,95432
2018-01-26T08:27:30.449Z,95431
2018-01-26T08:32:58.655Z,95422
2018-01-26T08:38:26.831Z,95420
2018-01-26T08:43:55.037Z,95426
2018-01-26T08:49:23.998Z,95433
2018-01-26T08:54:53.293Z,95427
2018-01-26T09:00:22.229Z,95426
2018-01-26T09:05:51.179Z,95438
2018-01-26T09:11:19.373Z,95445
2018-01-26T09:16:47.562Z,95441
2018-01-26T09:22:15.760Z,95453
2018-01-26T09:27:43.925Z,95461
2018-01-26T09:33:12.126Z,95458
2018-01-26T09:38:40.305Z,95462
2018-01-26T09:44:08.488Z,95465
2018-01-26T09:49:36.677Z,95439
2018-01-26T09:55:04.857Z,95450
2018-01-26T10:00:33.033Z,95461
2018-01-26T10:06:01.241Z,95458
2018-01-26T10:11:29.445Z,95475
2018-01-26T10:16:57.633Z,95481
2018-01-26T10:22:26.590Z,95478
2018-01-26T10:27:54.783Z,95471
2018-01-26T10:33:23.747Z,95472
2018-01-26T10:38:51.917Z,95465
2018-01-26T10:44:20.160Z,95464
2018-01-26T10:49:48.336Z,95486
2018-01-26T10:55:16.514Z,95484
2018-01-26T11:00:44.701Z,95484
2018-01-26T11:06:12.905Z,95488
2018-01-26T11:11:41.098Z,95487
2018-01-26T11:17:09.350Z,95493
2018-01-26T11:22:37.609Z,95500
2018-01-26T11:28:06.575Z,95515
2018-01-26T11:33:34.788Z,95521
2018-01-26T11:39:03.010Z,95517
2018-01-26T11:44:31.230Z,95526
2018-01-26T11:49:59.444Z,95527
2018-01-26T11:55:28.396Z,95530
2018-01-26T12:00:56.602Z,95540
2018-01-26T12:06:24.806Z,95533
2018-01-26T12:11:53.029Z,95521
2018-01-26T12:17:21.369Z,95523
2018-01-26T12:22:50.459Z,95527
2018-01-26T12:28:18.661Z,95527
2018-01-26T12:33:46.981Z,95545
2018-01-26T12:39:15.203Z,95550
2018-01-26T12:44:43.389Z,95559
2018-01-26T12:50:12.379Z,95552
2018-01-26T12:55:40.609Z,95551
2018-01-26T13:01:08.821Z,95565
2018-01-26T13:06:37.032Z,95571
2018-01-26T13:12:05.708Z,95582
2018-01-26T13:17:35.998Z,95585
2018-01-26T13:23:04.962Z,95584
2018-01-26T13:28:33.879Z,95575
2018-01-26T13:34:03.051Z,95578
2018-01-26T13:39:31.467Z,95593
2018-01-26T13:45:00.448Z,95589
2018-01-26T13:50:28.634Z,95593
2018-01-26T13:55:56.854Z,95594
2018-01-26T14:01:25.615Z,95604
2018-01-26T14:06:53.876Z,95602
2018-01-26T14:12:22.324Z,95606
2018-01-26T14:17:51.669Z,95605
2018-01-26T14:23:19.915Z,95607
2018-01-26T14:28:48.248Z,95611
2018-01-26T14:34:16.437Z,95622
2018-01-26T14:39:44.660Z,95632
2018-01-26T14:45:12.866Z,95636
2018-01-26T14:50:41.855Z,95645
2018-01-26T14:56:12.529Z,95650
2018-01-26T15:01:40.754Z,95651
2018-01-26T15:07:08.984Z,95659
2018-01-26T15:12:37.231Z,95640
2018-01-26T15:18:06.269Z,95644
2018-01-26T15:23:34.474Z,95687
2018-01-26T15:29:03.688Z,95690
2018-01-26T15:34:31.956Z,95696
2018-01-26T15:40:00.154Z,95715
2018-01-26T15:45:28.371Z,95716
2018-01-26T15:50:56.589Z,95719
2018-01-26T15:56:24.796Z,95728
2018-01-26T16:01:52.989Z,95721
2018-01-26T16:07:21.276Z,95735
2018-01-26T16:12:49.672Z,95737
2018-01-26T16:18:18.302Z,95746
2018-01-26T16:23:46.493Z,95750
2018-01-26T16:29:14.735Z,95753
2018-01-26T16:34:42.983Z,95750
2018-01-26T16:40:11.213Z,95761
2018-01-26T16:45:45.488Z,95757
2018-01-26T16:51:14.610Z,95781
2018-01-26T16:56:50.472Z,95791
2018-01-26T17:02:18.758Z,95798
2018-01-26T17:07:50.575Z,95807
2018-01-26T17:13:26.184Z,95827
2018-01-26T17:18:54.404Z,95832
2018-01-26T17:24:22.603Z,95838
2018-01-26T17:29:59.151Z,95845
2018-01-26T17:35:27.377Z,95836
2018-01-26T17:40:55.828Z,95851
2018-01-26T17:46:24.055Z,95854
2018-01-26T17:51:52.381Z,95852
2018-01-26T17:57:20.599Z,95862
2018-01-26T18:02:52.601Z,95857
2018-01-26T18:08:20.816Z,95869
2018-01-26T18:13:49.010Z,95864
2018-01-26T18:19:22.179Z,95873
2018-01-26T18:24:50.400Z,95875
2018-01-26T18:30:18.619Z,95885
2018-01-26T18:35:46.817Z,95885
2018-01-26T18:41:15.020Z,95908
2018-01-26T18:46:43.225Z,95905
2018-01-26T18:52:12.217Z,95906
2018-01-26T18:57:40.463Z,95907
2018-01-26T19:03:09.645Z,95905
2018-01-26T19:08:38.789Z,95901
2018-01-26T19:14:07.159Z,95906
2018-01-26T19:19:35.384Z,95907
2018-01-26T19:25:03.638Z,95916
2018-01-26T19:30:31.936Z,95911
2018-01-26T19:36:00.540Z,95916
2018-01-26T19:41:28.774Z,95923
2018-01-26T19:47:03.639Z,95932
2018-01-26T19:52:31.966Z,95926
2018-01-26T19:58:01.261Z,95941
2018-01-26T20:03:32.527Z,95943
2018-01-26T20:09:07.959Z,95963
2018-01-26T20:14:36.706Z,95985
2018-01-26T20:20:05.883Z,95982
2018-01-26T20:25:38.159Z,95980
2018-01-26T20:31:06.463Z,95998
2018-01-26T20:36:35.256Z,95989
2018-01-26T20:42:03.467Z,95997
2018-01-26T20:47:32.453Z,96012
2018-01-26T20:53:01.438Z,96012
2018-01-26T20:58:30.601Z,96017
2018-01-26T21:03:59.597Z,96025
2018-01-26T21:09:28.664Z,96017
2018-01-26T21:15:02.250Z,96031
2018-01-26T21:20:38.718Z,96038
2018-01-26T21:26:07.156Z,96047
2018-01-26T21:31:38.569Z,96064
2018-01-26T21:37:11.157Z,96053
2018-01-26T21:42:40.167Z,96063
2018-01-26T21:48:08.489Z,96063
2018-01-26T21:54:01.920Z,96066
2018-01-26T21:59:34.407Z,96085
2018-01-26T22:05:10.051Z,96091
2018-01-26T22:10:38.299Z,96100
2018-01-26T22:16:06.550Z,96104
2018-01-26T22:21:34.795Z,96113
2018-01-26T22:27:02.973Z,96116
2018-01-26T22:32:37.877Z,96131
2018-01-26T22:38:07.057Z,96146
2018-01-26T22:43:36.064Z,96153
2018-01-26T22:49:04.664Z,96167
2018-01-26T22:54:35.228Z,96167
2018-01-26T23:00:04.932Z,96178
2018-01-26T23:05:48.012Z,96187
2018-01-26T23:11:16.394Z,96194
2018-01-26T23:16:44.642Z,96190
2018-01-26T23:22:12.862Z,96195
2018-01-26T23:27:41.039Z,96214
2018-01-26T23:33:12.033Z,96228
2018-01-26T23:38:40.254Z,96236
2018-01-26T23:44:08.483Z,96239
2018-01-26T23:49:36.685Z,96228
2018-01-26T23:55:10.425Z,96237
